Time;durP1;ratioP1;P1;durP2;ratioP2;P2;SDS_P1;SDS_P2;PMS_P1;PMS_P2;Temp;Humidity;BMP_temperature;BMP_pressure;BME280_temperature;BME280_humidity;BME280_pressure;Samples;Min_cycle;Max_cycle;Signal;HPM_P1;HPM_P2
2021/01/28 00:01:18;;;;;;;1.30;1.20;;;13.10;66.40;;;;;;4984586;28;20026;-69
2021/01/28 00:03:45;;;;;;;2.40;1.98;;;13.00;66.70;;;;;;4993796;28;20026;-70
2021/01/28 00:06:11;;;;;;;1.50;1.40;;;12.80;67.70;;;;;;4995523;28;20105;-69
2021/01/28 00:08:38;;;;;;;1.60;1.50;;;12.80;67.90;;;;;;4985596;28;20023;-70
2021/01/28 00:11:04;;;;;;;2.92;1.60;;;12.70;67.30;;;;;;4989668;28;20361;-69
2021/01/28 00:13:31;;;;;;;4.60;1.63;;;12.70;67.40;;;;;;4990128;28;20156;-69
2021/01/28 00:15:57;;;;;;;3.13;1.55;;;12.60;67.80;;;;;;4992367;28;20030;-70
2021/01/28 00:18:24;;;;;;;1.35;1.33;;;12.40;68.40;;;;;;4991386;28;20026;-70
2021/01/28 00:20:51;;;;;;;1.80;1.70;;;12.50;68.40;;;;;;4991514;28;20031;-70
2021/01/28 00:23:18;;;;;;;2.25;1.77;;;12.60;67.60;;;;;;4988478;28;20026;-69
2021/01/28 00:25:46;;;;;;;2.03;1.85;;;12.50;67.70;;;;;;4987637;28;20059;-69
2021/01/28 00:28:15;;;;;;;2.10;1.90;;;12.40;68.20;;;;;;4990558;28;20096;-69
2021/01/28 00:30:46;;;;;;;1.90;1.80;;;12.50;68.30;;;;;;4988873;28;20030;-69
2021/01/28 00:33:20;;;;;;;1.80;1.70;;;12.30;68.80;;;;;;4983402;28;20045;-69
2021/01/28 00:35:49;;;;;;;2.78;1.80;;;12.20;68.90;;;;;;4985159;28;20414;-69
2021/01/28 00:38:26;;;;;;;1.70;1.60;;;12.40;68.50;;;;;;4988372;28;20026;-69
2021/01/28 00:40:53;;;;;;;2.85;1.38;;;12.30;68.80;;;;;;4992562;28;20109;-69
2021/01/28 00:43:20;;;;;;;1.90;1.70;;;12.20;68.80;;;;;;4991801;28;20454;-69
2021/01/28 00:45:46;;;;;;;1.90;1.80;;;12.30;68.50;;;;;;4988979;28;20364;-69
2021/01/28 00:48:13;;;;;;;2.20;2.10;;;12.30;69.50;;;;;;4990219;28;20034;-69
2021/01/28 00:50:41;;;;;;;1.77;1.67;;;12.30;68.60;;;;;;4988807;28;20031;-69
2021/01/28 00:53:10;;;;;;;1.95;1.77;;;12.10;69.00;;;;;;4992874;28;20468;-69
2021/01/28 00:55:36;;;;;;;1.92;1.83;;;12.30;68.50;;;;;;4985121;28;20027;-69
2021/01/28 00:58:03;;;;;;;2.05;1.80;;;12.30;68.70;;;;;;4994997;28;20030;-69
2021/01/28 01:00:53;;;;;;;6.95;5.68;;;12.20;68.60;;;;;;4995921;28;20479;-71
2021/01/28 01:03:21;;;;;;;1.98;1.50;;;12.20;68.30;;;;;;4995204;28;20034;-70
2021/01/28 01:05:48;;;;;;;5.40;1.60;;;12.10;68.90;;;;;;4991055;28;20029;-70
2021/01/28 01:08:21;;;;;;;2.97;2.78;;;12.10;69.10;;;;;;4995961;28;20072;-70
2021/01/28 01:10:54;;;;;;;3.10;2.90;;;12.30;68.40;;;;;;4994003;28;20023;-70
2021/01/28 01:13:26;;;;;;;13.35;9.73;;;12.20;67.90;;;;;;4983747;28;20030;-70
2021/01/28 01:15:54;;;;;;;24.95;11.45;;;12.30;67.60;;;;;;4989599;28;20041;-70
2021/01/28 01:18:24;;;;;;;5.10;4.53;;;12.20;69.00;;;;;;4996832;28;20031;-70
2021/01/28 01:20:51;;;;;;;5.30;4.78;;;12.20;68.10;;;;;;4992449;28;20102;-68
2021/01/28 01:23:18;;;;;;;5.45;3.92;;;12.20;67.70;;;;;;4990955;28;20465;-68
2021/01/28 01:25:45;;;;;;;3.45;3.15;;;12.10;68.70;;;;;;4982599;28;20026;-68
2021/01/28 01:28:11;;;;;;;2.67;1.83;;;12.30;68.30;;;;;;4989594;28;20026;-70
2021/01/28 01:30:38;;;;;;;11.63;8.50;;;12.50;66.80;;;;;;4993836;28;20105;-70
2021/01/28 01:33:05;;;;;;;12.85;7.07;;;12.20;67.80;;;;;;4988834;28;20457;-68
2021/01/28 01:35:32;;;;;;;7.90;6.22;;;12.10;68.40;;;;;;4994468;28;20045;-68
2021/01/28 01:37:59;;;;;;;4.70;4.32;;;12.20;68.20;;;;;;4990856;28;20041;-69
2021/01/28 01:40:29;;;;;;;3.50;3.20;;;12.10;68.10;;;;;;4994199;28;20031;-69
2021/01/28 01:42:56;;;;;;;2.15;1.70;;;12.10;68.60;;;;;;4993898;28;20027;-68
2021/01/28 01:45:34;;;;;;;4.00;3.70;;;12.20;68.30;;;;;;4989579;28;20138;-68
2021/01/28 01:48:20;;;;;;;3.60;2.45;;;12.30;67.70;;;;;;4989196;28;20019;-69
2021/01/28 01:50:55;;;;;;;6.35;4.30;;;12.30;67.20;;;;;;4995007;28;20027;-68
2021/01/28 01:53:24;;;;;;;3.78;3.47;;;12.20;68.10;;;;;;4989160;28;20492;-68
2021/01/28 01:55:56;;;;;;;6.78;6.18;;;12.20;68.60;;;;;;4987867;28;20091;-68
2021/01/28 01:58:33;;;;;;;4.50;4.13;;;12.30;67.80;;;;;;4986983;28;20045;-68
2021/01/28 02:00:59;;;;;;;3.75;3.50;;;12.20;67.90;;;;;;4982678;28;20039;-68
2021/01/28 02:03:30;;;;;;;5.43;4.93;;;12.30;68.10;;;;;;4985033;28;20026;-70
2021/01/28 02:06:30;;;;;;;5.63;5.10;;;12.30;68.10;;;;;;4984817;28;20346;-68
2021/01/28 02:08:57;;;;;;;4.57;3.22;;;12.10;68.50;;;;;;4988743;28;20042;-67
2021/01/28 02:11:25;;;;;;;2.92;2.38;;;12.20;68.10;;;;;;4983007;28;20023;-68
2021/01/28 02:13:55;;;;;;;3.80;2.65;;;12.20;67.80;;;;;;4990953;28;20372;-68
2021/01/28 02:16:25;;;;;;;7.05;3.15;;;12.30;67.70;;;;;;4989949;28;20026;-68
2021/01/28 02:18:54;;;;;;;2.88;2.45;;;12.30;67.80;;;;;;4990078;28;20034;-69
2021/01/28 02:21:28;;;;;;;2.45;2.20;;;12.30;67.70;;;;;;4991613;28;20109;-69
2021/01/28 02:24:19;;;;;;;2.67;2.47;;;12.40;67.50;;;;;;4992823;28;20018;-68
2021/01/28 02:26:48;;;;;;;4.07;3.05;;;12.40;68.00;;;;;;4991221;28;20030;-68
2021/01/28 02:29:16;;;;;;;2.55;2.35;;;12.20;67.90;;;;;;4993417;28;20048;-68
2021/01/28 02:31:45;;;;;;;4.50;1.80;;;12.30;68.20;;;;;;4987545;28;20022;-68
2021/01/28 02:34:12;;;;;;;6.05;4.10;;;12.20;67.90;;;;;;4989612;28;20037;-68
2021/01/28 02:36:46;;;;;;;2.88;2.63;;;12.00;68.50;;;;;;4986153;28;20041;-68
2021/01/28 02:39:15;;;;;;;2.70;2.50;;;12.00;69.00;;;;;;4993656;28;20026;-68
2021/01/28 02:41:52;;;;;;;3.22;2.90;;;12.10;68.40;;;;;;4984264;28;20357;-68
2021/01/28 02:44:19;;;;;;;3.70;2.90;;;11.90;69.50;;;;;;4989994;28;20034;-69
2021/01/28 02:46:45;;;;;;;3.13;2.58;;;12.00;69.20;;;;;;4980646;28;20030;-68
2021/01/28 02:49:16;;;;;;;4.75;2.33;;;12.10;68.90;;;;;;4974717;28;20288;-69
2021/01/28 02:51:42;;;;;;;3.05;2.00;;;12.20;68.40;;;;;;4982715;28;20023;-68
2021/01/28 02:54:09;;;;;;;3.38;3.08;;;12.20;68.40;;;;;;4994853;28;20088;-69
2021/01/28 02:56:36;;;;;;;2.97;2.60;;;12.10;68.40;;;;;;4993077;28;20022;-70
2021/01/28 02:59:02;;;;;;;3.65;3.33;;;12.10;68.30;;;;;;4987539;28;20105;-70
2021/01/28 03:01:29;;;;;;;4.70;4.30;;;12.00;68.40;;;;;;4982706;28;20041;-69
2021/01/28 03:03:56;;;;;;;4.40;4.00;;;12.20;68.30;;;;;;4990198;28;20173;-69
2021/01/28 03:06:22;;;;;;;3.10;2.42;;;12.10;67.60;;;;;;4992233;28;20040;-70
2021/01/28 03:08:48;;;;;;;9.98;8.82;;;12.10;68.10;;;;;;4991061;28;20050;-75
2021/01/28 03:11:15;;;;;;;2.50;2.30;;;12.00;68.20;;;;;;4992097;28;20054;-69
2021/01/28 03:13:41;;;;;;;7.30;5.78;;;12.00;68.60;;;;;;4985849;28;20029;-71
2021/01/28 03:16:08;;;;;;;8.18;7.57;;;12.00;68.30;;;;;;4988633;28;20035;-69
2021/01/28 03:18:34;;;;;;;4.20;3.90;;;11.90;68.60;;;;;;4987538;28;20022;-72
2021/01/28 03:21:00;;;;;;;2.55;2.42;;;12.00;68.00;;;;;;4996016;28;20029;-74
2021/01/28 03:23:27;;;;;;;2.20;2.10;;;12.00;68.90;;;;;;4993893;28;20381;-70
2021/01/28 03:25:53;;;;;;;2.50;2.15;;;11.70;68.80;;;;;;4990191;28;20022;-74
2021/01/28 03:28:19;;;;;;;2.25;2.15;;;11.90;69.40;;;;;;4992974;28;20437;-74
2021/01/28 03:30:47;;;;;;;3.63;3.42;;;11.90;68.60;;;;;;4994889;28;20018;-74
2021/01/28 03:33:17;;;;;;;2.30;2.10;;;11.90;69.50;;;;;;4993576;28;20088;-72
2021/01/28 03:35:44;;;;;;;3.90;2.40;;;11.70;70.00;;;;;;4986880;28;20033;-72
2021/01/28 03:38:12;;;;;;;2.42;2.33;;;11.80;70.30;;;;;;4992388;28;20030;-72
2021/01/28 03:40:39;;;;;;;2.10;2.00;;;11.80;69.70;;;;;;4993583;28;20401;-72
2021/01/28 03:43:06;;;;;;;2.85;2.53;;;11.80;70.20;;;;;;4993807;28;20037;-76
2021/01/28 03:45:33;;;;;;;2.47;2.33;;;11.70;70.10;;;;;;4980592;28;20686;-69
2021/01/28 03:48:00;;;;;;;2.95;2.75;;;11.80;70.60;;;;;;4986121;28;20027;-68
2021/01/28 03:50:29;;;;;;;2.35;2.25;;;11.90;71.20;;;;;;4982669;28;20178;-69
2021/01/28 03:52:56;;;;;;;2.58;2.03;;;11.80;71.30;;;;;;4981412;28;20033;-69
2021/01/28 03:55:23;;;;;;;2.63;2.53;;;11.90;71.10;;;;;;4987121;28;20022;-69
2021/01/28 03:57:51;;;;;;;3.05;2.85;;;11.90;71.30;;;;;;4979974;28;20058;-69
2021/01/28 04:00:32;;;;;;;2.92;2.72;;;11.80;71.00;;;;;;4978969;28;20042;-69
2021/01/28 04:03:00;;;;;;;3.45;2.67;;;11.80;71.70;;;;;;4985019;28;20037;-69
2021/01/28 04:05:27;;;;;;;2.55;2.40;;;11.80;71.70;;;;;;4981601;28;20030;-69
2021/01/28 04:07:54;;;;;;;2.58;2.38;;;11.80;72.50;;;;;;4980224;28;20077;-70
2021/01/28 04:10:27;;;;;;;2.17;2.08;;;12.00;72.60;;;;;;4993649;28;20022;-70
2021/01/28 04:12:53;;;;;;;4.72;3.72;;;11.90;72.20;;;;;;4990515;28;20029;-71
2021/01/28 04:15:20;;;;;;;2.13;2.03;;;11.90;72.80;;;;;;4994137;28;20109;-70
2021/01/28 04:17:48;;;;;;;2.70;2.50;;;12.00;72.50;;;;;;4996618;28;20036;-71
2021/01/28 04:20:18;;;;;;;3.08;2.88;;;12.10;72.30;;;;;;4991652;28;20030;-71
2021/01/28 04:22:44;;;;;;;2.50;2.40;;;12.10;72.80;;;;;;5002366;28;20030;-71
2021/01/28 04:25:12;;;;;;;2.92;2.72;;;12.00;72.20;;;;;;5003650;28;20026;-71
2021/01/28 04:27:39;;;;;;;3.20;2.65;;;12.10;72.80;;;;;;4992204;28;20033;-71
2021/01/28 04:30:08;;;;;;;2.83;2.60;;;11.90;72.80;;;;;;4985308;28;20023;-69
2021/01/28 04:32:34;;;;;;;3.25;2.88;;;11.90;73.20;;;;;;4996320;28;20019;-69
2021/01/28 04:35:01;;;;;;;3.00;2.80;;;11.90;73.00;;;;;;4995809;28;20101;-70
2021/01/28 04:37:27;;;;;;;2.33;2.22;;;11.80;73.60;;;;;;4991906;28;20034;-70
2021/01/28 04:39:54;;;;;;;2.58;2.47;;;11.90;73.70;;;;;;4989929;28;20349;-69
2021/01/28 04:42:31;;;;;;;2.45;2.25;;;11.80;74.30;;;;;;4992254;28;20427;-70
2021/01/28 04:44:57;;;;;;;3.17;2.88;;;12.00;73.70;;;;;;4987477;28;20186;-70
2021/01/28 04:47:24;;;;;;;3.50;2.75;;;11.90;73.50;;;;;;4983468;28;20023;-69
2021/01/28 04:49:58;;;;;;;2.60;2.40;;;11.90;73.90;;;;;;4987832;28;20338;-70
2021/01/28 04:52:26;;;;;;;2.70;2.50;;;11.80;74.30;;;;;;4988050;28;20019;-70
2021/01/28 04:54:55;;;;;;;3.90;2.33;;;11.80;74.60;;;;;;4985062;28;20030;-70
2021/01/28 04:57:22;;;;;;;2.40;2.20;;;11.90;74.50;;;;;;4986108;28;20018;-69
2021/01/28 04:59:53;;;;;;;2.05;1.95;;;11.90;74.70;;;;;;4991471;28;20037;-69
2021/01/28 05:02:26;;;;;;;8.82;2.38;;;11.90;73.90;;;;;;4993827;28;20477;-69
2021/01/28 05:04:56;;;;;;;3.20;2.15;;;11.90;74.60;;;;;;4985028;28;20042;-69
2021/01/28 05:07:27;;;;;;;2.42;2.22;;;11.90;74.50;;;;;;4989560;28;20368;-69
2021/01/28 05:10:07;;;;;;;2.58;2.22;;;12.10;74.10;;;;;;4991349;28;20030;-69
2021/01/28 05:12:34;;;;;;;2.28;2.08;;;12.10;73.50;;;;;;4989551;28;20432;-70
2021/01/28 05:15:12;;;;;;;2.28;2.05;;;12.10;74.00;;;;;;4988409;28;20463;-69
2021/01/28 05:17:40;;;;;;;4.00;2.22;;;12.20;73.30;;;;;;4992508;28;20022;-71
2021/01/28 05:20:13;;;;;;;2.63;2.42;;;12.30;73.30;;;;;;4986074;28;20014;-70
2021/01/28 05:22:44;;;;;;;5.00;3.28;;;12.50;72.40;;;;;;4992258;28;20110;-69
2021/01/28 05:25:35;;;;;;;3.55;3.25;;;12.30;72.60;;;;;;4991233;28;20022;-69
2021/01/28 05:28:30;;;;;;;3.17;2.88;;;12.40;72.50;;;;;;4988418;28;20026;-70
2021/01/28 05:30:58;;;;;;;3.03;2.72;;;12.10;73.40;;;;;;4992870;28;20368;-70
2021/01/28 05:33:40;;;;;;;3.58;3.28;;;12.00;73.60;;;;;;4988060;28;20042;-69
2021/01/28 05:36:16;;;;;;;4.47;2.75;;;12.00;74.00;;;;;;4987724;28;20030;-69
2021/01/28 05:38:47;;;;;;;2.95;2.55;;;12.00;73.80;;;;;;4987285;28;20102;-69
2021/01/28 05:41:27;;;;;;;3.25;2.95;;;12.10;73.80;;;;;;4986596;28;20121;-69
2021/01/28 05:43:54;;;;;;;5.57;3.20;;;12.00;73.60;;;;;;4983667;28;20125;-69
2021/01/28 05:46:22;;;;;;;3.17;2.88;;;11.80;74.40;;;;;;4988167;28;20109;-68
2021/01/28 05:49:06;;;;;;;15.68;14.05;;;11.80;74.70;;;;;;4989452;28;20467;-69
2021/01/28 05:51:43;;;;;;;6.43;4.88;;;12.00;74.10;;;;;;4988175;28;20022;-69
2021/01/28 05:54:19;;;;;;;3.25;3.05;;;12.00;74.50;;;;;;4985097;28;20031;-69
2021/01/28 05:57:20;;;;;;;3.65;3.35;;;12.30;74.00;;;;;;4993507;28;20042;-69
2021/01/28 06:00:02;;;;;;;4.45;3.40;;;12.10;74.10;;;;;;4992263;28;20057;-69
2021/01/28 06:03:02;;;;;;;4.20;3.38;;;12.20;74.00;;;;;;4984565;28;20045;-68
2021/01/28 06:05:31;;;;;;;3.40;3.17;;;12.20;73.30;;;;;;4981418;28;20120;-68
2021/01/28 06:08:40;;;;;;;4.50;4.18;;;12.10;74.00;;;;;;4988312;28;20035;-68
2021/01/28 06:11:23;;;;;;;3.53;2.58;;;12.20;74.50;;;;;;4987401;28;20018;-69
2021/01/28 06:14:11;;;;;;;4.30;3.95;;;12.20;73.50;;;;;;4990600;28;20408;-70
2021/01/28 06:16:55;;;;;;;4.03;3.13;;;12.30;73.80;;;;;;4988019;28;20039;-69
2021/01/28 06:19:40;;;;;;;4.30;4.00;;;12.40;73.30;;;;;;4991130;28;20022;-70
2021/01/28 06:22:33;;;;;;;4.57;4.18;;;12.20;74.10;;;;;;4990150;28;20085;-70
2021/01/28 06:25:48;;;;;;;6.35;3.75;;;12.40;74.00;;;;;;4988135;28;20043;-69
2021/01/28 06:28:26;;;;;;;6.03;4.97;;;12.60;73.10;;;;;;4980903;28;20038;-69
2021/01/28 06:31:04;;;;;;;7.07;6.47;;;12.50;73.50;;;;;;4979410;28;20061;-69
2021/01/28 06:33:40;;;;;;;4.50;4.10;;;12.40;73.10;;;;;;4994269;28;20122;-69
2021/01/28 06:36:19;;;;;;;3.90;3.60;;;12.20;74.50;;;;;;4992847;28;20036;-69
2021/01/28 06:39:09;;;;;;;4.93;3.17;;;12.40;74.30;;;;;;4991334;28;20022;-69
2021/01/28 06:41:41;;;;;;;6.38;3.55;;;12.10;74.50;;;;;;4985765;28;20040;-69
2021/01/28 06:44:17;;;;;;;;;;;12.10;74.80;;;;;;4985144;28;20064;-69
2021/01/28 06:47:20;;;;;;;4.25;3.67;;;12.10;74.80;;;;;;4990747;28;19920;-69
2021/01/28 06:49:50;;;;;;;;;;;12.30;74.70;;;;;;4991026;28;20023;-69
2021/01/28 06:52:22;;;;;;;4.28;3.97;;;12.60;74.20;;;;;;4986573;28;19906;-69
2021/01/28 06:54:57;;;;;;;5.07;4.57;;;12.60;74.20;;;;;;4984584;28;20093;-70
2021/01/28 06:57:46;;;;;;;5.28;4.78;;;12.50;74.00;;;;;;4984723;28;20042;-69
2021/01/28 07:00:48;;;;;;;4.90;3.90;;;12.60;74.10;;;;;;4985353;28;20018;-69
2021/01/28 07:03:47;;;;;;;3.95;3.55;;;12.40;74.20;;;;;;4990089;28;22074;-70
2021/01/28 07:06:22;;;;;;;3.05;2.85;;;12.30;74.90;;;;;;4984185;28;20057;-69
2021/01/28 07:08:51;;;;;;;2.90;2.70;;;12.50;74.90;;;;;;4990786;28;20045;-69
2021/01/28 07:11:34;;;;;;;3.25;3.05;;;12.40;74.70;;;;;;4982964;28;20341;-69
2021/01/28 07:14:03;;;;;;;4.15;3.63;;;12.30;75.40;;;;;;4983249;28;20022;-69
2021/01/28 07:16:48;;;;;;;3.28;3.00;;;12.30;75.20;;;;;;4985766;28;20062;-69
2021/01/28 07:19:22;;;;;;;4.10;3.35;;;12.40;75.00;;;;;;4987069;28;20022;-70
2021/01/28 07:21:51;;;;;;;4.32;3.90;;;12.50;74.80;;;;;;4986628;28;20030;-69
2021/01/28 07:24:37;;;;;;;2.88;2.67;;;12.50;74.70;;;;;;4993762;28;20387;-69
2021/01/28 07:27:09;;;;;;;3.78;3.47;;;12.50;74.90;;;;;;4984788;28;20022;-73
2021/01/28 07:29:45;;;;;;;3.25;2.95;;;12.50;75.00;;;;;;5004465;28;20030;-68
2021/01/28 07:32:33;;;;;;;5.53;5.05;;;12.70;74.80;;;;;;4992713;28;20018;-70
2021/01/28 07:35:29;;;;;;;4.07;3.78;;;12.60;74.50;;;;;;4991886;28;20039;-70
2021/01/28 07:38:16;;;;;;;5.50;4.15;;;12.80;75.00;;;;;;4992892;28;20364;-70
2021/01/28 07:41:03;;;;;;;5.15;4.75;;;12.70;74.80;;;;;;4991403;28;20027;-70
2021/01/28 07:43:38;;;;;;;5.25;4.75;;;12.60;75.40;;;;;;4990355;28;20027;-69
2021/01/28 07:46:28;;;;;;;5.80;5.30;;;12.60;75.30;;;;;;4993887;28;20125;-68
2021/01/28 07:49:09;;;;;;;6.05;5.45;;;12.60;75.30;;;;;;4990617;28;20114;-69
2021/01/28 07:51:41;;;;;;;5.20;4.60;;;12.60;75.70;;;;;;4987653;28;20376;-68
2021/01/28 07:54:25;;;;;;;5.60;4.73;;;12.60;75.20;;;;;;4992245;28;20018;-69
2021/01/28 07:56:59;;;;;;;4.38;3.70;;;12.50;75.80;;;;;;5001932;28;20731;-69
2021/01/28 07:59:53;;;;;;;4.10;3.80;;;12.50;76.20;;;;;;4993790;28;20085;-69
2021/01/28 08:02:36;;;;;;;3.50;3.20;;;12.70;75.90;;;;;;4993557;28;20030;-71
2021/01/28 08:05:08;;;;;;;3.60;3.25;;;12.60;75.00;;;;;;4992853;28;20034;-71
2021/01/28 08:07:36;;;;;;;4.03;3.72;;;12.60;75.30;;;;;;4995824;28;20452;-69
2021/01/28 08:10:27;;;;;;;9.48;5.22;;;12.50;76.00;;;;;;4988740;28;20042;-69
2021/01/28 08:13:21;;;;;;;4.82;3.55;;;12.60;76.20;;;;;;4982929;28;20027;-70
2021/01/28 08:16:10;;;;;;;3.60;3.30;;;12.60;75.30;;;;;;4993078;28;20117;-69
2021/01/28 08:18:43;;;;;;;3.00;2.80;;;12.60;75.30;;;;;;4990577;28;20034;-69
2021/01/28 08:21:21;;;;;;;4.25;3.22;;;12.60;75.90;;;;;;4993646;28;20035;-69
2021/01/28 08:23:48;;;;;;;3.53;3.25;;;12.50;76.40;;;;;;4987592;28;20114;-69
2021/01/28 08:26:28;;;;;;;3.92;2.83;;;12.50;76.80;;;;;;4993894;28;20018;-69
2021/01/28 08:29:19;;;;;;;3.08;2.88;;;12.60;75.80;;;;;;4994586;28;20026;-69
2021/01/28 08:31:52;;;;;;;3.80;3.50;;;12.60;76.80;;;;;;4998884;28;20460;-70
2021/01/28 08:34:22;;;;;;;3.35;2.90;;;12.60;76.50;;;;;;4995853;28;20034;-69
2021/01/28 08:37:00;;;;;;;2.65;2.45;;;12.60;76.50;;;;;;4989785;28;20213;-71
2021/01/28 08:39:32;;;;;;;3.85;2.55;;;12.60;76.60;;;;;;4995164;28;20041;-69
2021/01/28 08:42:06;;;;;;;;;;;12.70;76.00;;;;;;4995298;28;20044;-69
2021/01/28 08:44:34;;;;;;;5.38;2.80;;;12.70;75.50;;;;;;4992646;28;19913;-69
2021/01/28 08:47:26;;;;;;;4.15;2.50;;;12.60;76.50;;;;;;4990105;28;20021;-69
2021/01/28 08:50:07;;;;;;;4.50;2.40;;;12.70;75.90;;;;;;4994891;28;20492;-69
2021/01/28 08:52:35;;;;;;;2.60;2.28;;;12.70;76.30;;;;;;4994923;28;20101;-69
2021/01/28 08:55:25;;;;;;;4.18;2.72;;;12.70;76.50;;;;;;4994927;28;20026;-69
2021/01/28 08:57:59;;;;;;;2.67;2.47;;;12.60;77.20;;;;;;4983020;28;20018;-69
2021/01/28 09:00:26;;;;;;;3.53;2.47;;;12.70;76.20;;;;;;4992814;28;20029;-69
2021/01/28 09:02:55;;;;;;;2.35;1.90;;;12.80;76.50;;;;;;4992982;28;20484;-69
2021/01/28 09:05:33;;;;;;;3.65;2.50;;;12.80;76.60;;;;;;4988283;28;20456;-70
2021/01/28 09:08:09;;;;;;;5.35;2.53;;;13.00;77.00;;;;;;4994098;28;20026;-70
2021/01/28 09:10:42;;;;;;;3.28;2.17;;;13.10;75.80;;;;;;4988823;28;20026;-69
2021/01/28 09:13:32;;;;;;;2.88;2.58;;;12.90;76.40;;;;;;4984080;28;20117;-69
2021/01/28 09:16:15;;;;;;;4.07;2.05;;;12.70;77.70;;;;;;4992142;28;20463;-69
2021/01/28 09:18:47;;;;;;;3.60;2.05;;;13.00;77.20;;;;;;4994703;28;20026;-69
2021/01/28 09:21:35;;;;;;;5.35;1.90;;;13.20;76.40;;;;;;4992549;28;20089;-70
2021/01/28 09:24:19;;;;;;;12.65;2.75;;;13.50;75.70;;;;;;4995760;28;20168;-68
2021/01/28 09:26:46;;;;;;;14.45;3.55;;;13.50;75.90;;;;;;4995958;28;20345;-68
2021/01/28 09:29:32;;;;;;;12.05;3.60;;;13.50;75.90;;;;;;4994478;28;20046;-68
2021/01/28 09:32:11;;;;;;;17.33;2.80;;;13.50;75.70;;;;;;4994234;28;20026;-67
2021/01/28 09:34:38;;;;;;;12.90;3.50;;;13.50;75.60;;;;;;4993911;28;20026;-68
2021/01/28 09:37:17;;;;;;;21.35;4.22;;;13.60;75.70;;;;;;4989394;28;20037;-69
2021/01/28 09:39:52;;;;;;;18.98;3.85;;;13.50;75.90;;;;;;4991480;28;20027;-68
2021/01/28 09:42:32;;;;;;;33.13;5.95;;;13.50;75.50;;;;;;4991946;28;20037;-69
2021/01/28 09:45:09;;;;;;;15.98;5.07;;;13.50;75.30;;;;;;4992979;28;20042;-69
2021/01/28 09:47:36;;;;;;;16.67;4.68;;;13.60;75.00;;;;;;4991926;28;20030;-69
2021/01/28 09:50:08;;;;;;;15.55;4.35;;;13.60;74.90;;;;;;4994175;28;20030;-69
2021/01/28 09:52:43;;;;;;;33.40;5.30;;;13.60;74.90;;;;;;4990180;28;20027;-69
2021/01/28 09:55:14;;;;;;;11.63;3.65;;;13.60;75.10;;;;;;4989862;28;20042;-69
2021/01/28 09:57:41;;;;;;;11.27;2.88;;;13.60;74.60;;;;;;4994940;28;20345;-69
2021/01/28 10:00:14;;;;;;;17.95;5.22;;;13.60;74.10;;;;;;4996700;28;20406;-69
2021/01/28 10:02:57;;;;;;;19.02;4.47;;;13.60;73.40;;;;;;4993512;28;20026;-69
2021/01/28 10:05:28;;;;;;;10.48;3.75;;;13.60;73.80;;;;;;4996027;28;20026;-69
2021/01/28 10:07:56;;;;;;;12.02;4.05;;;13.40;74.40;;;;;;4995949;28;20456;-69
2021/01/28 10:10:25;;;;;;;16.42;5.32;;;13.40;74.40;;;;;;4994098;28;20066;-69
2021/01/28 10:12:54;;;;;;;19.67;4.93;;;13.40;74.50;;;;;;4995634;28;20026;-68
2021/01/28 10:15:21;;;;;;;11.15;4.18;;;13.50;74.70;;;;;;4994712;28;20042;-69
2021/01/28 10:17:47;;;;;;;19.40;4.28;;;13.50;73.80;;;;;;4995007;28;20022;-69
2021/01/28 10:20:14;;;;;;;12.82;3.65;;;13.50;74.00;;;;;;4994563;28;20038;-69
2021/01/28 10:22:42;;;;;;;9.27;2.72;;;13.50;74.20;;;;;;4992933;28;20360;-69
2021/01/28 10:25:11;;;;;;;13.60;3.20;;;13.30;74.50;;;;;;4990481;28;20041;-69
2021/01/28 10:27:38;;;;;;;12.07;3.75;;;13.20;75.20;;;;;;4995971;28;20034;-69
2021/01/28 10:30:06;;;;;;;10.15;3.88;;;13.20;75.20;;;;;;4994234;28;20432;-69
2021/01/28 10:32:33;;;;;;;11.02;2.95;;;13.20;75.50;;;;;;4993372;28;20105;-69
2021/01/28 10:34:59;;;;;;;11.18;2.33;;;13.20;75.30;;;;;;4992967;28;20025;-69
2021/01/28 10:37:26;;;;;;;4.97;1.80;;;13.20;75.50;;;;;;4995263;28;20559;-69
2021/01/28 10:39:53;;;;;;;8.75;3.53;;;13.20;75.50;;;;;;4994304;28;20034;-70
2021/01/28 10:42:25;;;;;;;6.05;2.13;;;13.20;75.60;;;;;;4995281;28;20435;-69
2021/01/28 10:44:51;;;;;;;6.22;1.70;;;13.30;75.50;;;;;;4992238;28;20344;-69
2021/01/28 10:47:18;;;;;;;7.65;2.13;;;13.30;75.10;;;;;;4993011;28;20038;-69
2021/01/28 10:49:44;;;;;;;3.88;2.15;;;13.20;75.50;;;;;;4989132;28;20356;-68
2021/01/28 10:52:10;;;;;;;8.73;2.53;;;13.30;75.60;;;;;;4993457;28;20106;-69
2021/01/28 10:54:37;;;;;;;10.35;2.58;;;13.30;75.20;;;;;;4993796;28;20037;-70
2021/01/28 11:04:12;;;;;;;10.15;2.28;;;13.40;74.90;;;;;;4993533;28;20037;-69
2021/01/28 11:06:38;;;;;;;7.35;2.15;;;13.30;75.20;;;;;;4994386;28;20031;-69
2021/01/28 11:09:05;;;;;;;4.15;2.15;;;13.20;75.70;;;;;;4991884;28;20072;-69
2021/01/28 11:11:32;;;;;;;5.68;2.15;;;13.20;75.60;;;;;;4992783;28;20063;-69
2021/01/28 11:13:58;;;;;;;8.23;2.08;;;13.20;75.60;;;;;;4991139;28;20030;-69
2021/01/28 11:16:26;;;;;;;8.75;1.90;;;13.40;75.20;;;;;;4994093;28;20088;-69
2021/01/28 11:18:54;;;;;;;7.85;2.05;;;13.40;74.90;;;;;;4992832;28;20401;-69
2021/01/28 11:21:22;;;;;;;3.60;2.17;;;13.30;75.10;;;;;;4993802;28;20030;-69
2021/01/28 11:23:49;;;;;;;3.72;1.45;;;13.20;75.40;;;;;;4992950;28;20030;-69
2021/01/28 11:26:16;;;;;;;5.05;2.00;;;13.20;75.60;;;;;;4994467;28;20022;-69
2021/01/28 11:28:44;;;;;;;4.45;1.48;;;13.20;75.70;;;;;;4996810;28;20381;-69
2021/01/28 11:31:11;;;;;;;9.23;1.60;;;13.20;75.90;;;;;;4997059;28;20029;-69
2021/01/28 11:33:37;;;;;;;6.75;1.63;;;13.20;75.60;;;;;;4996981;28;20058;-69
2021/01/28 11:36:04;;;;;;;3.72;1.98;;;13.10;75.40;;;;;;4991572;28;20034;-70
2021/01/28 11:38:30;;;;;;;6.85;1.63;;;13.50;74.50;;;;;;4998546;28;20029;-69
2021/01/28 11:40:57;;;;;;;4.38;1.63;;;13.50;74.10;;;;;;4996923;28;20456;-69
2021/01/28 11:43:24;;;;;;;6.55;2.40;;;13.30;75.00;;;;;;4997891;28;20042;-71
2021/01/28 11:45:50;;;;;;;3.28;1.40;;;13.30;75.20;;;;;;4998656;28;20026;-70
2021/01/28 11:48:17;;;;;;;7.47;1.77;;;13.20;75.30;;;;;;4996578;28;20412;-69
2021/01/28 11:50:43;;;;;;;7.60;1.70;;;13.30;74.90;;;;;;4996083;28;20080;-69
2021/01/28 11:53:10;;;;;;;7.70;1.55;;;13.20;75.00;;;;;;4995965;28;20113;-69
2021/01/28 11:55:36;;;;;;;5.32;1.65;;;13.20;75.20;;;;;;4998008;28;20470;-70
2021/01/28 11:58:03;;;;;;;6.18;1.90;;;13.30;75.20;;;;;;4997643;28;20041;-69
2021/01/28 12:00:31;;;;;;;4.78;2.53;;;13.20;75.30;;;;;;4997706;28;20038;-69
2021/01/28 12:02:57;;;;;;;3.63;1.50;;;13.20;75.50;;;;;;4996313;28;20031;-69
2021/01/28 12:05:27;;;;;;;2.05;1.60;;;13.10;75.80;;;;;;4996746;28;20471;-69
2021/01/28 12:07:55;;;;;;;2.20;1.80;;;13.10;75.80;;;;;;4998234;28;20037;-69
2021/01/28 12:10:23;;;;;;;12.55;2.50;;;13.10;76.20;;;;;;4995286;28;20353;-69
2021/01/28 12:12:50;;;;;;;4.13;1.40;;;13.10;75.90;;;;;;4994190;28;20113;-68
2021/01/28 12:15:17;;;;;;;3.67;2.08;;;13.20;75.70;;;;;;4996484;28;20019;-69
2021/01/28 12:17:44;;;;;;;2.63;1.88;;;13.10;75.80;;;;;;4996003;28;20036;-69
2021/01/28 12:20:11;;;;;;;3.08;1.70;;;13.10;75.80;;;;;;4995842;28;20015;-70
2021/01/28 12:22:38;;;;;;;6.03;1.58;;;13.20;75.60;;;;;;4996414;28;20034;-69
2021/01/28 12:25:06;;;;;;;4.88;2.00;;;13.10;76.20;;;;;;4991836;28;20046;-69
2021/01/28 12:27:32;;;;;;;2.85;2.00;;;13.10;76.10;;;;;;4995308;28;20030;-69
2021/01/28 12:30:02;;;;;;;3.25;1.85;;;13.10;76.00;;;;;;4995271;28;20440;-69
2021/01/28 12:32:29;;;;;;;1.90;1.63;;;13.20;75.90;;;;;;4997616;28;20085;-69
2021/01/28 12:34:55;;;;;;;9.95;2.00;;;13.20;75.90;;;;;;4998698;28;20033;-69
2021/01/28 12:37:22;;;;;;;5.78;2.10;;;13.10;75.60;;;;;;4994978;28;20085;-69
2021/01/28 12:39:49;;;;;;;3.55;1.90;;;13.10;75.80;;;;;;4996998;28;20118;-69
2021/01/28 12:42:15;;;;;;;2.00;1.55;;;13.10;76.30;;;;;;4996041;28;20460;-69
2021/01/28 12:44:42;;;;;;;6.10;2.60;;;13.10;75.70;;;;;;4996382;28;20049;-69
2021/01/28 12:47:08;;;;;;;6.75;3.50;;;13.20;75.10;;;;;;4997770;28;20110;-72
2021/01/28 12:49:35;;;;;;;4.95;2.13;;;13.20;74.70;;;;;;4992701;28;20027;-72
2021/01/28 12:52:01;;;;;;;4.55;2.17;;;13.20;75.10;;;;;;4995600;28;20027;-69
2021/01/28 12:54:28;;;;;;;3.97;2.08;;;13.10;76.10;;;;;;4996410;28;20520;-69
2021/01/28 12:56:54;;;;;;;3.58;1.95;;;13.10;75.80;;;;;;4997209;28;20365;-69
2021/01/28 12:59:21;;;;;;;2.85;1.85;;;13.10;76.10;;;;;;4996686;28;20463;-69
2021/01/28 13:01:47;;;;;;;5.00;2.28;;;13.10;76.10;;;;;;4995923;28;20404;-69
2021/01/28 13:04:13;;;;;;;4.00;2.67;;;13.10;75.90;;;;;;4995229;28;20380;-69
2021/01/28 13:06:40;;;;;;;3.53;3.22;;;13.10;76.10;;;;;;4996782;28;20037;-69
2021/01/28 13:09:06;;;;;;;3.80;3.25;;;13.00;76.10;;;;;;4996050;28;20019;-69
2021/01/28 13:11:33;;;;;;;8.80;5.05;;;13.00;76.30;;;;;;4995394;28;20030;-69
2021/01/28 13:13:59;;;;;;;4.80;4.40;;;13.00;76.00;;;;;;4994341;28;20441;-69
2021/01/28 13:16:26;;;;;;;4.25;3.92;;;13.00;76.10;;;;;;4984519;28;20030;-69
2021/01/28 13:18:52;;;;;;;4.28;3.97;;;12.90;76.50;;;;;;4996504;28;20030;-69